PWSweather.com
Personal Weather Stations
Station Observations
GRD01
Warsaw, LesznoPL 05-084

WarsawLesznoPL 05-084

Lat: 52.257404, Lon: 20.564847

Elevation: 298

Station Type: WH3080

http://pogoda.kampinos.waw.pl

High Low Average
Temperature 61.9°F16.6°C 47.7°F8.7°C 56.7°F13.7°C
Dew Point 57.8°F14.3°C 42.6°F5.9°C 49.4°F9.7°C
Winds 17.4 mph 28.0 kmh Calm Calm 8.0 mph WSW12.9 kmh WSW
Wind Gusts 25.9 mph41.7 kmh -- 14.0 mph22.5 kmh
Humidity 91% 57% 77%
Pressure 30.05 in1017.6 mb 29.64 in1003.7 mb -
Precipitation 0.01 in0.3 mm - -
Hour Temp Dew Point Humidity Winds Wind Gusts Pressure Precip Precip Rate Daily Precip Total
12:00 AM 60.4°F15.8°C 57.5°F14.2°C 90% Calm Calm 3.1 mph5.0 kmh 29.64 in1003.7 mb 0.01 in0.3 mm 0.00 in0.0 mm 0.01 in0.3 mm
12:15 AM 60.4°F15.8°C 57.8°F14.3°C 91% 2.2 mph SW3.5 kmh SW 4.5 mph7.2 kmh 29.64 in1003.7 mb 0.01 in0.3 mm 0.00 in0.0 mm 0.01 in0.3 mm
12:30 AM 60.3°F15.7°C 57.3°F14.1°C 90% 3.1 mph SSW5.0 kmh SSW 6.0 mph9.7 kmh 29.64 in1003.7 mb 0.01 in0.3 mm 0.00 in0.0 mm 0.01 in0.3 mm
12:45 AM 60.4°F15.8°C 57.5°F14.2°C 90% 3.8 mph SE6.1 kmh SE 7.6 mph12.2 kmh 29.64 in1003.7 mb 0.00 in0.0 mm 0.00 in0.0 mm 0.01 in0.3 mm
01:00 AM 60.6°F15.9°C 57.4°F14.1°C 89% 3.1 mph SE5.0 kmh SE 6.9 mph11.1 kmh 29.64 in1003.7 mb 0.00 in0.0 mm 0.00 in0.0 mm 0.01 in0.3 mm
01:15 AM 60.6°F15.9°C 56.7°F13.7°C 87% 1.6 mph SSE2.6 kmh SSE 6.0 mph9.7 kmh 29.64 in1003.7 mb 0.00 in0.0 mm 0.00 in0.0 mm 0.01 in0.3 mm
01:30 AM 60.8°F16.0°C 56.3°F13.5°C 85% 2.2 mph WSW3.5 kmh WSW 8.3 mph13.4 kmh 29.64 in1003.7 mb 0.00 in0.0 mm 0.00 in0.0 mm 0.01 in0.3 mm
01:45 AM 60.8°F16.0°C 56.3°F13.5°C 85% 2.2 mph ESE3.5 kmh ESE 10.7 mph17.2 kmh 29.65 in1004.1 mb 0.00 in0.0 mm 0.00 in0.0 mm 0.01 in0.3 mm
02:00 AM 60.6°F15.9°C 55.8°F13.2°C 84% 4.5 mph N7.2 kmh N 9.8 mph15.8 kmh 29.64 in1003.7 mb 0.00 in0.0 mm 0.00 in0.0 mm 0.01 in0.3 mm
02:15 AM 60.4°F15.8°C 55.6°F13.1°C 84% 2.2 mph WNW3.5 kmh WNW 8.3 mph13.4 kmh 29.64 in1003.7 mb 0.00 in0.0 mm 0.00 in0.0 mm 0.01 in0.3 mm
02:30 AM 60.3°F15.7°C 55.7°F13.2°C 85% 3.8 mph SSW6.1 kmh SSW 7.6 mph12.2 kmh 29.64 in1003.7 mb 0.00 in0.0 mm 0.00 in0.0 mm 0.01 in0.3 mm
02:45 AM 60.1°F15.6°C 55.6°F13.1°C 85% 3.8 mph SSW6.1 kmh SSW 9.2 mph14.8 kmh 29.65 in1004.1 mb 0.00 in0.0 mm 0.00 in0.0 mm 0.01 in0.3 mm
03:00 AM 59.9°F15.5°C 55.4°F13.0°C 85% 2.2 mph SW3.5 kmh SW 10.7 mph17.2 kmh 29.65 in1004.1 mb 0.00 in0.0 mm 0.00 in0.0 mm 0.01 in0.3 mm
03:15 AM 59.9°F15.5°C 55.4°F13.0°C 85% 9.8 mph WSW15.8 kmh WSW 15.9 mph25.6 kmh 29.66 in1004.4 mb 0.00 in0.0 mm 0.00 in0.0 mm 0.01 in0.3 mm
03:30 AM 59.4°F15.2°C 54.8°F12.7°C 85% 9.2 mph W14.8 kmh W 13.6 mph21.9 kmh 29.66 in1004.4 mb 0.00 in0.0 mm 0.00 in0.0 mm 0.01 in0.3 mm
03:45 AM 58.8°F14.9°C 54.3°F12.4°C 85% 3.8 mph S6.1 kmh S 11.4 mph18.3 kmh 29.67 in1004.7 mb 0.00 in0.0 mm 0.00 in0.0 mm 0.01 in0.3 mm
04:00 AM 58.8°F14.9°C 54.6°F12.6°C 86% 6.0 mph SW9.7 kmh SW 13.6 mph21.9 kmh 29.67 in1004.7 mb 0.00 in0.0 mm 0.00 in0.0 mm 0.01 in0.3 mm
04:15 AM 58.6°F14.8°C 54.5°F12.5°C 86% 3.8 mph WSW6.1 kmh WSW 13.0 mph20.9 kmh 29.67 in1004.7 mb 0.00 in0.0 mm 0.00 in0.0 mm 0.01 in0.3 mm
04:30 AM 58.5°F14.7°C 54.3°F12.4°C 86% 6.9 mph SSW11.1 kmh SSW 16.8 mph27.0 kmh 29.67 in1004.7 mb 0.00 in0.0 mm 0.00 in0.0 mm 0.01 in0.3 mm
04:45 AM 58.3°F14.6°C 54.1°F12.3°C 86% 8.3 mph SW13.4 kmh SW 17.4 mph28.0 kmh 29.67 in1004.7 mb 0.00 in0.0 mm 0.00 in0.0 mm 0.01 in0.3 mm
05:00 AM 57.6°F14.2°C 53.1°F11.7°C 85% 10.7 mph SW17.2 kmh SW 19.0 mph30.6 kmh 29.68 in1005.1 mb 0.00 in0.0 mm 0.00 in0.0 mm 0.01 in0.3 mm
05:15 AM 57.2°F14.0°C 52.7°F11.5°C 85% 6.0 mph SW9.7 kmh SW 18.3 mph29.5 kmh 29.68 in1005.1 mb 0.00 in0.0 mm 0.00 in0.0 mm 0.01 in0.3 mm
05:30 AM 56.8°F13.8°C 52.4°F11.3°C 85% 12.1 mph W19.5 kmh W 15.2 mph24.5 kmh 29.69 in1005.4 mb 0.00 in0.0 mm 0.00 in0.0 mm 0.01 in0.3 mm
05:45 AM 56.3°F13.5°C 52.2°F11.2°C 86% 11.4 mph SSW18.3 kmh SSW 15.2 mph24.5 kmh 29.70 in1005.8 mb 0.00 in0.0 mm 0.00 in0.0 mm 0.01 in0.3 mm
06:00 AM 55.9°F13.3°C 51.5°F10.8°C 85% 9.2 mph SW14.8 kmh SW 14.5 mph23.3 kmh 29.70 in1005.8 mb 0.00 in0.0 mm 0.00 in0.0 mm 0.01 in0.3 mm
06:15 AM 55.8°F13.2°C 51.6°F10.9°C 86% 4.5 mph WSW7.2 kmh WSW 15.9 mph25.6 kmh 29.71 in1006.1 mb 0.00 in0.0 mm 0.00 in0.0 mm 0.01 in0.3 mm
06:30 AM 55.8°F13.2°C 51.9°F11.1°C 87% 6.0 mph W9.7 kmh W 15.2 mph24.5 kmh 29.70 in1005.8 mb 0.00 in0.0 mm 0.00 in0.0 mm 0.01 in0.3 mm
06:45 AM 55.6°F13.1°C 51.8°F11.0°C 87% 9.8 mph WSW15.8 kmh WSW 15.2 mph24.5 kmh 29.71 in1006.1 mb 0.00 in0.0 mm 0.00 in0.0 mm 0.01 in0.3 mm
07:00 AM 55.2°F12.9°C 51.4°F10.8°C 87% 8.3 mph NW13.4 kmh NW 18.3 mph29.5 kmh 29.73 in1006.8 mb 0.00 in0.0 mm 0.00 in0.0 mm 0.01 in0.3 mm
07:15 AM 54.7°F12.6°C 50.6°F10.3°C 86% 9.2 mph NW14.8 kmh NW 16.8 mph27.0 kmh 29.73 in1006.8 mb 0.00 in0.0 mm 0.00 in0.0 mm 0.01 in0.3 mm
07:30 AM 54.3°F12.4°C 51.4°F10.8°C 90% 10.7 mph NW17.2 kmh NW 19.0 mph30.6 kmh 29.75 in1007.5 mb 0.00 in0.0 mm 0.00 in0.0 mm 0.01 in0.3 mm
07:45 AM 54.0°F12.2°C 51.1°F10.6°C 90% 9.8 mph NW15.8 kmh NW 18.3 mph29.5 kmh 29.75 in1007.5 mb 0.00 in0.0 mm 0.00 in0.0 mm 0.01 in0.3 mm
08:00 AM 53.8°F12.1°C 50.9°F10.5°C 90% 9.8 mph NNW15.8 kmh NNW 15.9 mph25.6 kmh 29.75 in1007.5 mb 0.00 in0.0 mm 0.00 in0.0 mm 0.01 in0.3 mm
08:15 AM 53.6°F12.0°C 50.7°F10.4°C 90% 13.0 mph NW20.9 kmh NW 22.1 mph35.6 kmh 29.76 in1007.8 mb 0.00 in0.0 mm 0.00 in0.0 mm 0.01 in0.3 mm
08:30 AM 53.6°F12.0°C 50.7°F10.4°C 90% 11.4 mph NW18.3 kmh NW 15.9 mph25.6 kmh 29.78 in1008.5 mb 0.00 in0.0 mm 0.00 in0.0 mm 0.01 in0.3 mm
08:45 AM 53.8°F12.1°C 50.3°F10.2°C 88% 10.7 mph NNW17.2 kmh NNW 20.6 mph33.2 kmh 29.78 in1008.5 mb 0.00 in0.0 mm 0.00 in0.0 mm 0.01 in0.3 mm
09:00 AM 53.8°F12.1°C 50.0°F10.0°C 87% 11.4 mph NW18.3 kmh NW 18.3 mph29.5 kmh 29.78 in1008.5 mb 0.00 in0.0 mm 0.00 in0.0 mm 0.01 in0.3 mm
09:15 AM 53.8°F12.1°C 49.7°F9.8°C 86% 15.9 mph NNW25.6 kmh NNW 20.6 mph33.2 kmh 29.79 in1008.8 mb 0.00 in0.0 mm 0.00 in0.0 mm 0.01 in0.3 mm
09:30 AM 53.8°F12.1°C 49.4°F9.7°C 85% 13.0 mph NNW20.9 kmh NNW 18.3 mph29.5 kmh 29.80 in1009.1 mb 0.00 in0.0 mm 0.00 in0.0 mm 0.01 in0.3 mm
09:45 AM 54.0°F12.2°C 49.6°F9.8°C 85% 13.0 mph NNW20.9 kmh NNW 19.0 mph30.6 kmh 29.81 in1009.5 mb 0.00 in0.0 mm 0.00 in0.0 mm 0.01 in0.3 mm
10:00 AM 54.0°F12.2°C 49.9°F9.9°C 86% 15.9 mph NNW25.6 kmh NNW 19.7 mph31.7 kmh 29.82 in1009.8 mb 0.00 in0.0 mm 0.00 in0.0 mm 0.01 in0.3 mm
10:15 AM 54.0°F12.2°C 50.2°F10.1°C 87% 15.2 mph NNW24.5 kmh NNW 21.3 mph34.3 kmh 29.83 in1010.2 mb 0.00 in0.0 mm 0.00 in0.0 mm 0.01 in0.3 mm
10:30 AM 54.1°F12.3°C 50.0°F10.0°C 86% 12.1 mph NNW19.5 kmh NNW 21.3 mph34.3 kmh 29.84 in1010.5 mb 0.00 in0.0 mm 0.00 in0.0 mm 0.01 in0.3 mm
10:45 AM 54.5°F12.5°C 48.8°F9.3°C 81% 14.5 mph NW23.3 kmh NW 19.0 mph30.6 kmh 29.84 in1010.5 mb 0.00 in0.0 mm 0.00 in0.0 mm 0.01 in0.3 mm
11:00 AM 54.5°F12.5°C 48.5°F9.2°C 80% 16.8 mph NW27.0 kmh NW 23.5 mph37.8 kmh 29.85 in1010.8 mb 0.00 in0.0 mm 0.00 in0.0 mm 0.01 in0.3 mm
11:15 AM 54.7°F12.6°C 47.6°F8.7°C 77% 14.5 mph NNW23.3 kmh NNW 25.1 mph40.4 kmh 29.86 in1011.2 mb 0.00 in0.0 mm 0.00 in0.0 mm 0.01 in0.3 mm
11:30 AM 55.2°F12.9°C 48.5°F9.2°C 78% 13.0 mph NNW20.9 kmh NNW 22.1 mph35.6 kmh 29.87 in1011.5 mb 0.00 in0.0 mm 0.00 in0.0 mm 0.01 in0.3 mm
11:45 AM 55.8°F13.2°C 48.0°F8.9°C 75% 15.2 mph NNW24.5 kmh NNW 20.6 mph33.2 kmh 29.88 in1011.9 mb 0.00 in0.0 mm 0.00 in0.0 mm 0.01 in0.3 mm
12:00 PM 56.5°F13.6°C 47.9°F8.8°C 73% 10.7 mph NNW17.2 kmh NNW 21.3 mph34.3 kmh 29.88 in1011.9 mb 0.00 in0.0 mm 0.00 in0.0 mm 0.01 in0.3 mm
12:15 PM 57.7°F14.3°C 49.1°F9.5°C 73% 13.0 mph NW20.9 kmh NW 19.7 mph31.7 kmh 29.89 in1012.2 mb 0.00 in0.0 mm 0.00 in0.0 mm 0.01 in0.3 mm
12:30 PM 59.0°F15.0°C 50.0°F10.0°C 72% 15.2 mph NNW24.5 kmh NNW 21.3 mph34.3 kmh 29.89 in1012.2 mb 0.00 in0.0 mm 0.00 in0.0 mm 0.01 in0.3 mm
12:45 PM 59.9°F15.5°C 50.1°F10.1°C 70% 9.8 mph NW15.8 kmh NW 24.4 mph39.3 kmh 29.89 in1012.2 mb 0.00 in0.0 mm 0.00 in0.0 mm 0.01 in0.3 mm
01:00 PM 60.6°F15.9°C 49.2°F9.6°C 66% 17.4 mph N28.0 kmh N 23.5 mph37.8 kmh 29.89 in1012.2 mb 0.00 in0.0 mm 0.00 in0.0 mm 0.01 in0.3 mm
01:15 PM 61.3°F16.3°C 49.9°F9.9°C 66% 10.7 mph NNW17.2 kmh NNW 20.6 mph33.2 kmh 29.89 in1012.2 mb 0.00 in0.0 mm 0.00 in0.0 mm 0.01 in0.3 mm
01:30 PM 61.9°F16.6°C 49.6°F9.8°C 64% 15.9 mph NNW25.6 kmh NNW 21.3 mph34.3 kmh 29.89 in1012.2 mb 0.00 in0.0 mm 0.00 in0.0 mm 0.01 in0.3 mm
01:45 PM 61.0°F16.1°C 48.7°F9.3°C 64% 15.9 mph N25.6 kmh N 22.1 mph35.6 kmh 29.90 in1012.5 mb 0.00 in0.0 mm 0.00 in0.0 mm 0.01 in0.3 mm
02:00 PM 61.3°F16.3°C 49.1°F9.5°C 64% 11.4 mph NNW18.3 kmh NNW 22.1 mph35.6 kmh 29.90 in1012.5 mb 0.00 in0.0 mm 0.00 in0.0 mm 0.01 in0.3 mm
02:15 PM 61.2°F16.2°C 48.0°F8.9°C 62% 13.6 mph NNW21.9 kmh NNW 25.1 mph40.4 kmh 29.90 in1012.5 mb 0.00 in0.0 mm 0.00 in0.0 mm 0.01 in0.3 mm
02:30 PM 61.3°F16.3°C 48.2°F9.0°C 62% 12.1 mph NW19.5 kmh NW 23.5 mph37.8 kmh 29.91 in1012.9 mb 0.00 in0.0 mm 0.00 in0.0 mm 0.01 in0.3 mm
02:45 PM 61.3°F16.3°C 47.8°F8.8°C 61% 15.2 mph NW24.5 kmh NW 20.6 mph33.2 kmh 29.91 in1012.9 mb 0.00 in0.0 mm 0.00 in0.0 mm 0.01 in0.3 mm
03:00 PM 61.7°F16.5°C 48.1°F8.9°C 61% 15.9 mph NNW25.6 kmh NNW 22.8 mph36.7 kmh 29.91 in1012.9 mb 0.00 in0.0 mm 0.00 in0.0 mm 0.01 in0.3 mm
03:15 PM 61.3°F16.3°C 47.3°F8.5°C 60% 14.5 mph NW23.3 kmh NW 25.9 mph41.7 kmh 29.91 in1012.9 mb 0.00 in0.0 mm 0.00 in0.0 mm 0.01 in0.3 mm
03:30 PM 61.9°F16.6°C 47.8°F8.8°C 60% 9.2 mph NNW14.8 kmh NNW 18.3 mph29.5 kmh 29.92 in1013.2 mb 0.00 in0.0 mm 0.00 in0.0 mm 0.01 in0.3 mm
03:45 PM 61.7°F16.5°C 46.3°F7.9°C 57% 15.9 mph NNW25.6 kmh NNW 25.9 mph41.7 kmh 29.92 in1013.2 mb 0.00 in0.0 mm 0.00 in0.0 mm 0.01 in0.3 mm
04:00 PM 61.3°F16.3°C 46.4°F8.0°C 58% 15.9 mph NNW25.6 kmh NNW 23.5 mph37.8 kmh 29.93 in1013.5 mb 0.00 in0.0 mm 0.00 in0.0 mm 0.01 in0.3 mm
04:15 PM 61.2°F16.2°C 46.3°F7.9°C 58% 16.8 mph N27.0 kmh N 22.8 mph36.7 kmh 29.93 in1013.5 mb 0.00 in0.0 mm 0.00 in0.0 mm 0.01 in0.3 mm
04:30 PM 60.6°F15.9°C 46.2°F7.9°C 59% 8.3 mph N13.4 kmh N 19.0 mph30.6 kmh 29.93 in1013.5 mb 0.00 in0.0 mm 0.00 in0.0 mm 0.01 in0.3 mm
04:45 PM 60.6°F15.9°C 46.2°F7.9°C 59% 13.6 mph NNW21.9 kmh NNW 20.6 mph33.2 kmh 29.93 in1013.5 mb 0.00 in0.0 mm 0.00 in0.0 mm 0.01 in0.3 mm
05:00 PM 61.0°F16.1°C 46.1°F7.8°C 58% 12.1 mph NNW19.5 kmh NNW 17.4 mph28.0 kmh 29.94 in1013.9 mb 0.00 in0.0 mm 0.00 in0.0 mm 0.01 in0.3 mm
05:15 PM 61.2°F16.2°C 45.8°F7.7°C 57% 15.2 mph NNW24.5 kmh NNW 20.6 mph33.2 kmh 29.94 in1013.9 mb 0.00 in0.0 mm 0.00 in0.0 mm 0.01 in0.3 mm
05:30 PM 61.0°F16.1°C 46.1°F7.8°C 58% 12.1 mph NNW19.5 kmh NNW 18.3 mph29.5 kmh 29.93 in1013.5 mb 0.00 in0.0 mm 0.00 in0.0 mm 0.01 in0.3 mm
05:45 PM 60.6°F15.9°C 46.7°F8.2°C 60% 10.7 mph N17.2 kmh N 14.5 mph23.3 kmh 29.94 in1013.9 mb 0.00 in0.0 mm 0.00 in0.0 mm 0.01 in0.3 mm
06:00 PM 60.1°F15.6°C 46.1°F7.8°C 60% 9.2 mph N14.8 kmh N 13.0 mph20.9 kmh 29.95 in1014.2 mb 0.00 in0.0 mm 0.00 in0.0 mm 0.01 in0.3 mm
06:15 PM 59.4°F15.2°C 45.9°F7.7°C 61% 5.4 mph NNW8.7 kmh NNW 9.2 mph14.8 kmh 29.95 in1014.2 mb 0.00 in0.0 mm 0.00 in0.0 mm 0.01 in0.3 mm
06:30 PM 58.8°F14.9°C 45.4°F7.4°C 61% 6.0 mph NNW9.7 kmh NNW 8.3 mph13.4 kmh 29.96 in1014.6 mb 0.00 in0.0 mm 0.00 in0.0 mm 0.01 in0.3 mm
06:45 PM 57.9°F14.4°C 45.0°F7.2°C 62% 3.1 mph N5.0 kmh N 4.5 mph7.2 kmh 29.96 in1014.6 mb 0.00 in0.0 mm 0.00 in0.0 mm 0.01 in0.3 mm
07:00 PM 57.0°F13.9°C 44.5°F6.9°C 63% 2.2 mph NNE3.5 kmh NNE 3.8 mph6.1 kmh 29.97 in1014.9 mb 0.00 in0.0 mm 0.00 in0.0 mm 0.01 in0.3 mm
07:15 PM 55.8°F13.2°C 44.2°F6.8°C 65% 2.2 mph NE3.5 kmh NE 11.4 mph18.3 kmh 29.97 in1014.9 mb 0.00 in0.0 mm 0.00 in0.0 mm 0.01 in0.3 mm
07:30 PM 54.5°F12.5°C 43.8°F6.6°C 67% Calm Calm 3.1 mph5.0 kmh 29.98 in1015.2 mb 0.00 in0.0 mm 0.00 in0.0 mm 0.01 in0.3 mm
07:45 PM 53.4°F11.9°C 44.6°F7.0°C 72% 0.7 mph NNE1.1 kmh NNE 2.2 mph3.5 kmh 29.98 in1015.2 mb 0.00 in0.0 mm 0.00 in0.0 mm 0.01 in0.3 mm
08:00 PM 52.5°F11.4°C 44.1°F6.7°C 73% 0.7 mph NE1.1 kmh NE 2.2 mph3.5 kmh 30.00 in1015.9 mb 0.00 in0.0 mm 0.00 in0.0 mm 0.01 in0.3 mm
08:15 PM 51.8°F11.0°C 43.8°F6.6°C 74% 1.6 mph NNE2.6 kmh NNE 2.2 mph3.5 kmh 30.00 in1015.9 mb 0.00 in0.0 mm 0.00 in0.0 mm 0.01 in0.3 mm
08:30 PM 50.9°F10.5°C 43.3°F6.3°C 75% 0.7 mph NE1.1 kmh NE 2.2 mph3.5 kmh 30.01 in1016.3 mb 0.00 in0.0 mm 0.00 in0.0 mm 0.01 in0.3 mm
08:45 PM 50.4°F10.2°C 43.4°F6.3°C 77% 1.6 mph NNE2.6 kmh NNE 3.1 mph5.0 kmh 30.00 in1015.9 mb 0.00 in0.0 mm 0.00 in0.0 mm 0.01 in0.3 mm
09:00 PM 50.0°F10.0°C 43.4°F6.3°C 78% Calm Calm 1.6 mph2.6 kmh 30.01 in1016.3 mb 0.00 in0.0 mm 0.00 in0.0 mm 0.01 in0.3 mm
09:15 PM 50.2°F10.1°C 44.2°F6.8°C 80% 1.6 mph NE2.6 kmh NE 2.2 mph3.5 kmh 30.02 in1016.6 mb 0.00 in0.0 mm 0.00 in0.0 mm 0.01 in0.3 mm
09:30 PM 50.5°F10.3°C 44.9°F7.2°C 81% Calm Calm -- 30.02 in1016.6 mb 0.00 in0.0 mm 0.00 in0.0 mm 0.01 in0.3 mm
09:45 PM 50.5°F10.3°C 45.2°F7.3°C 82% 0.7 mph SW1.1 kmh SW 2.2 mph3.5 kmh 30.02 in1016.6 mb 0.00 in0.0 mm 0.00 in0.0 mm 0.01 in0.3 mm
10:00 PM 50.4°F10.2°C 45.1°F7.3°C 82% Calm Calm 3.1 mph5.0 kmh 30.02 in1016.6 mb 0.00 in0.0 mm 0.00 in0.0 mm 0.01 in0.3 mm
10:15 PM 50.0°F10.0°C 44.4°F6.9°C 81% Calm Calm -- 30.02 in1016.6 mb 0.00 in0.0 mm 0.00 in0.0 mm 0.01 in0.3 mm
10:30 PM 49.5°F9.7°C 43.9°F6.6°C 81% 0.7 mph NNE1.1 kmh NNE 1.6 mph2.6 kmh 30.03 in1016.9 mb 0.00 in0.0 mm 0.00 in0.0 mm 0.01 in0.3 mm
10:45 PM 49.1°F9.5°C 43.5°F6.4°C 81% Calm Calm 2.2 mph3.5 kmh 30.04 in1017.3 mb 0.00 in0.0 mm 0.00 in0.0 mm 0.01 in0.3 mm
11:00 PM 48.6°F9.2°C 43.0°F6.1°C 81% Calm Calm 2.2 mph3.5 kmh 30.04 in1017.3 mb 0.00 in0.0 mm 0.00 in0.0 mm 0.01 in0.3 mm
11:15 PM 48.0°F8.9°C 42.8°F6.0°C 82% Calm Calm 2.2 mph3.5 kmh 30.05 in1017.6 mb 0.00 in0.0 mm 0.00 in0.0 mm 0.01 in0.3 mm
11:30 PM 47.8°F8.8°C 42.6°F5.9°C 82% 0.7 mph WSW1.1 kmh WSW 2.2 mph3.5 kmh 30.05 in1017.6 mb 0.00 in0.0 mm 0.00 in0.0 mm 0.01 in0.3 mm
11:45 PM 47.7°F8.7°C 42.8°F6.0°C 83% Calm Calm -- 30.05 in1017.6 mb 0.00 in0.0 mm 0.00 in0.0 mm 0.01 in0.3 mm